createdAt,value
2022-12-18T00:01:20.854Z,101637.50
2022-12-18T00:16:09.955Z,101646.72
2022-12-18T00:31:01.123Z,101635.65
2022-12-18T00:45:52.450Z,101664.03
2022-12-18T01:00:41.709Z,101645.79
2022-12-18T01:15:29.523Z,101661.20
2022-12-18T01:30:17.851Z,101639.23
2022-12-18T01:45:12.439Z,101657.27
2022-12-18T02:00:07.492Z,101638.25
2022-12-18T02:15:08.740Z,101663.59
2022-12-18T02:30:17.282Z,101659.46
2022-12-18T02:45:10.730Z,101670.54
2022-12-18T03:00:02.966Z,101671.19
2022-12-18T03:14:57.635Z,101677.05
2022-12-18T03:44:37.622Z,101668.36
2022-12-18T03:59:28.471Z,101662.73
2022-12-18T04:14:18.298Z,101666.70
2022-12-18T04:29:05.717Z,101660.25
2022-12-18T04:58:44.006Z,101664.89
2022-12-18T05:13:32.831Z,101684.94
2022-12-18T05:28:21.753Z,101684.32
2022-12-18T05:43:14.283Z,101687.44
2022-12-18T05:58:00.742Z,101686.14
2022-12-18T06:12:50.974Z,101699.66
2022-12-18T06:27:40.087Z,101714.47
2022-12-18T06:42:29.419Z,101743.03
2022-12-18T06:57:19.073Z,101742.39
2022-12-18T07:12:08.765Z,101757.48
2022-12-18T07:26:57.464Z,101749.98
2022-12-18T07:41:49.345Z,101767.20
2022-12-18T07:56:41.717Z,101783.39
2022-12-18T08:11:30.792Z,101801.81
2022-12-18T08:26:19.430Z,101801.86
2022-12-18T08:41:08.598Z,101774.37
2022-12-18T08:55:56.811Z,101755.36
2022-12-18T09:10:45.845Z,101729.83
2022-12-18T09:25:35.931Z,101756.36
2022-12-18T09:40:24.786Z,101809.53
2022-12-18T09:55:36.880Z,101804.61
2022-12-18T10:10:27.307Z,101820.28
2022-12-18T10:25:26.133Z,101810.61
2022-12-18T10:40:22.639Z,101796.37
2022-12-18T10:55:09.241Z,101787.50
2022-12-18T11:10:02.129Z,101794.91
2022-12-18T11:40:00.573Z,101765.67
2022-12-18T11:54:57.303Z,101752.84
2022-12-18T12:10:03.549Z,101722.79
2022-12-18T12:25:17.164Z,101719.97
2022-12-18T12:40:49.241Z,101732.83
2022-12-18T12:55:14.478Z,101732.52
2022-12-18T13:10:13.292Z,101702.34
2022-12-18T13:25:28.863Z,101674.06
2022-12-18T13:40:39.990Z,101648.53
2022-12-18T13:55:33.278Z,101640.44
2022-12-18T14:10:45.162Z,101645.58
2022-12-18T14:25:14.174Z,101634.66
2022-12-18T14:40:11.099Z,101635.88
2022-12-18T15:09:44.908Z,101621.13
2022-12-18T15:24:34.954Z,101624.73
2022-12-18T15:39:24.166Z,101613.34
2022-12-18T15:54:13.090Z,101615.93
2022-12-18T16:09:02.213Z,101619.38
2022-12-18T16:23:51.919Z,101619.06
2022-12-18T16:38:40.876Z,101611.28
2022-12-18T16:53:29.124Z,101608.68
2022-12-18T17:08:18.722Z,101595.44
2022-12-18T17:23:08.370Z,101585.91
2022-12-18T17:37:57.886Z,101588.38
2022-12-18T17:52:46.776Z,101586.50
2022-12-18T18:07:36.224Z,101579.38
2022-12-18T18:22:25.367Z,101605.22
2022-12-18T18:37:15.015Z,101588.50
2022-12-18T18:52:04.816Z,101551.45
2022-12-18T19:06:55.398Z,101536.03
2022-12-18T19:21:45.039Z,101526.24
2022-12-18T19:36:35.748Z,101516.31
2022-12-18T19:51:25.319Z,101514.83
2022-12-18T20:06:21.560Z,101505.94
2022-12-18T20:21:16.948Z,101526.18
2022-12-18T20:36:05.667Z,101524.33
2022-12-18T20:51:04.280Z,101507.87
2022-12-18T21:05:56.888Z,101511.02
2022-12-18T21:20:45.851Z,101479.84
2022-12-18T21:35:36.014Z,101496.83
2022-12-18T21:50:24.816Z,101447.81
2022-12-18T22:05:14.273Z,101480.01
2022-12-18T22:20:04.918Z,101495.13
2022-12-18T22:34:54.421Z,101517.92
2022-12-18T22:49:44.464Z,101518.23
2022-12-18T23:04:36.622Z,101499.98
2022-12-18T23:19:23.733Z,101501.84
2022-12-18T23:34:13.785Z,101482.97
2022-12-18T23:49:03.249Z,101463.05
